Time;durP1;ratioP1;P1;durP2;ratioP2;P2;SDS_P1;SDS_P2;PMS_P1;PMS_P2;Temp;Humidity;BMP_temperature;BMP_pressure;BME280_temperature;BME280_humidity;BME280_pressure;Samples;Min_cycle;Max_cycle;Signal;HPM_P1;HPM_P2
2021/03/26 00:01:15;;;;;;;111.55;65.32;;;179.30;1561.60;;;;;;5101348;28;20031;-69
2021/03/26 00:03:41;;;;;;;119.13;67.88;;;179.20;1561.60;;;;;;5117681;28;20133;-66
2021/03/26 00:06:14;;;;;;;111.47;66.60;;;179.20;1536.00;;;;;;5116962;28;20063;-69
2021/03/26 00:08:41;;;;;;;115.75;63.67;;;179.20;1536.00;;;;;;5096742;28;20237;-66
2021/03/26 00:11:08;;;;;;;143.35;74.75;;;154.50;1561.60;;;;;;5099059;28;20035;-67
2021/03/26 00:13:34;;;;;;;151.52;72.57;;;154.40;1561.60;;;;;;5096690;28;20095;-65
2021/03/26 00:16:00;;;;;;;128.98;67.47;;;154.30;1561.60;;;;;;5096622;28;20047;-65
2021/03/26 00:18:26;;;;;;;111.85;61.33;;;154.30;1561.60;;;;;;5096633;28;20020;-66
2021/03/26 00:20:52;;;;;;;127.55;71.43;;;154.30;1561.60;;;;;;5096324;28;20059;-66
2021/03/26 00:23:18;;;;;;;139.00;78.22;;;154.40;1587.20;;;;;;5096492;28;20028;-67
2021/03/26 00:25:45;;;;;;;130.00;73.57;;;154.50;1587.20;;;;;;5096409;28;20020;-65
2021/03/26 00:28:11;;;;;;;148.90;86.55;;;154.40;1587.20;;;;;;5096682;28;20105;-64
2021/03/26 00:30:38;;;;;;;88.00;52.50;;;154.50;1561.60;;;;;;5096411;28;20488;-66
2021/03/26 00:33:06;;;;;;;82.65;47.45;;;179.20;1561.60;;;;;;5096236;28;20034;-64
2021/03/26 00:35:33;;;;;;;83.22;47.15;;;179.20;1561.60;;;;;;5096147;28;20066;-67
2021/03/26 00:37:59;;;;;;;75.68;43.92;;;179.30;1561.60;;;;;;5096513;28;20024;-66
2021/03/26 00:40:25;;;;;;;67.72;40.08;;;179.30;1561.60;;;;;;5096137;28;20038;-66
2021/03/26 00:42:52;;;;;;;60.13;35.88;;;179.30;1536.00;;;;;;5101292;28;20031;-66
2021/03/26 00:45:22;;;;;;;60.60;34.55;;;179.30;1536.00;;;;;;5107572;28;20073;-68
2021/03/26 00:47:48;;;;;;;53.80;32.85;;;179.30;1536.00;;;;;;5113202;28;20106;-66
2021/03/26 00:50:18;;;;;;;53.20;32.83;;;179.30;1536.00;;;;;;5083788;28;20051;-64
2021/03/26 00:52:44;;;;;;;58.13;36.13;;;179.30;1536.00;;;;;;5084633;28;20021;-65
2021/03/26 00:55:11;;;;;;;59.15;34.05;;;179.30;1536.00;;;;;;5087090;28;20066;-71
2021/03/26 00:57:36;;;;;;;61.53;37.17;;;179.20;1536.00;;;;;;5075777;28;20028;-66
2021/03/26 01:00:06;;;;;;;57.78;35.13;;;154.50;1561.60;;;;;;5079164;28;20032;-71
2021/03/26 01:02:31;;;;;;;59.63;34.20;;;154.50;1561.60;;;;;;5084346;28;20173;-69
2021/03/26 01:04:57;;;;;;;60.05;35.47;;;154.50;1587.20;;;;;;5084333;28;20450;-63
2021/03/26 01:07:23;;;;;;;60.05;35.38;;;154.40;1587.20;;;;;;5079903;28;20039;-69
2021/03/26 01:09:49;;;;;;;60.70;34.97;;;154.20;1612.80;;;;;;5075425;28;20052;-69
2021/03/26 01:12:15;;;;;;;61.63;35.58;;;154.20;1612.80;;;;;;5075409;28;20465;-69
2021/03/26 01:14:41;;;;;;;56.15;32.85;;;154.10;1612.80;;;;;;5075555;28;20033;-63
2021/03/26 01:17:07;;;;;;;55.28;34.38;;;154.10;1612.80;;;;;;5075569;28;20024;-71
2021/03/26 01:19:38;;;;;;;55.10;34.17;;;154.20;1587.20;;;;;;5075318;28;20028;-64
2021/03/26 01:22:05;;;;;;;66.53;35.58;;;154.20;1587.20;;;;;;5074948;28;20052;-70
2021/03/26 01:24:31;;;;;;;55.85;32.58;;;154.30;1587.20;;;;;;5075399;28;20032;-63
2021/03/26 01:26:58;;;;;;;48.58;30.38;;;154.40;1561.60;;;;;;5075131;28;20377;-70
2021/03/26 01:29:24;;;;;;;50.33;30.95;;;154.50;1561.60;;;;;;5074997;28;20111;-70
2021/03/26 01:31:50;;;;;;;50.13;31.13;;;179.20;1536.00;;;;;;5074985;28;20064;-69
2021/03/26 01:34:16;;;;;;;49.45;29.75;;;179.20;1536.00;;;;;;5074818;28;20028;-70
2021/03/26 01:36:42;;;;;;;50.05;30.08;;;179.20;1536.00;;;;;;5074766;28;20025;-69
2021/03/26 01:39:08;;;;;;;47.45;30.10;;;179.20;1536.00;;;;;;5074871;28;20028;-69
2021/03/26 01:41:46;;;;;;;45.83;29.13;;;179.20;1536.00;;;;;;5074758;28;20032;-69
2021/03/26 01:44:14;;;;;;;43.58;28.80;;;179.30;1536.00;;;;;;5074769;28;20025;-68
2021/03/26 01:46:41;;;;;;;47.22;31.65;;;179.20;1536.00;;;;;;5074922;28;20028;-70
2021/03/26 01:49:08;;;;;;;49.92;29.88;;;179.20;1536.00;;;;;;5074749;28;20025;-63
2021/03/26 01:51:40;;;;;;;52.67;31.45;;;154.50;1536.00;;;;;;5074582;28;20032;-69
2021/03/26 01:54:09;;;;;;;47.58;30.40;;;154.50;1561.60;;;;;;5074790;28;20025;-70
2021/03/26 01:56:36;;;;;;;49.05;29.48;;;154.40;1587.20;;;;;;5074888;28;20032;-70
2021/03/26 01:59:02;;;;;;;45.97;29.65;;;154.40;1587.20;;;;;;5074484;28;20021;-63
2021/03/26 02:01:42;;;;;;;51.88;31.42;;;154.40;1587.20;;;;;;5073515;28;20376;-69
2021/03/26 02:04:09;;;;;;;50.90;30.88;;;154.40;1587.20;;;;;;5074434;28;20047;-65
2021/03/26 02:06:42;;;;;;;53.03;32.55;;;154.20;1612.80;;;;;;5074277;28;20029;-69
2021/03/26 02:09:19;;;;;;;53.58;31.55;;;154.00;1638.40;;;;;;5074515;28;20020;-65
2021/03/26 02:11:52;;;;;;;51.47;32.75;;;153.80;1638.40;;;;;;5074560;28;20068;-64
2021/03/26 02:14:25;;;;;;;53.00;33.28;;;153.70;1638.40;;;;;;5074101;28;20048;-69
2021/03/26 02:16:52;;;;;;;51.85;31.48;;;128.90;1664.00;;;;;;5074133;28;20021;-71
2021/03/26 02:19:37;;;;;;;57.25;31.88;;;153.60;1664.00;;;;;;5073975;28;20025;-70
2021/03/26 02:22:04;;;;;;;57.15;33.42;;;153.60;1664.00;;;;;;5086347;28;20044;-71
2021/03/26 02:24:30;;;;;;;58.63;34.40;;;153.60;1689.60;;;;;;5094171;28;20024;-70
2021/03/26 02:27:03;;;;;;;61.17;34.42;;;128.80;1689.60;;;;;;5094476;28;20016;-63
2021/03/26 02:29:32;;;;;;;55.90;34.50;;;128.60;1715.20;;;;;;5094421;28;20032;-71
2021/03/26 02:32:06;;;;;;;58.67;35.97;;;128.60;1715.20;;;;;;5094019;28;20035;-69
2021/03/26 02:34:36;;;;;;;59.65;35.45;;;128.50;1715.20;;;;;;5091938;28;20036;-63
2021/03/26 02:37:08;;;;;;;53.50;33.85;;;128.60;1740.80;;;;;;5073603;28;20111;-64
2021/03/26 02:39:54;;;;;;;58.13;34.50;;;128.60;1715.20;;;;;;5073584;28;20012;-69
2021/03/26 02:42:25;;;;;;;59.42;33.85;;;128.70;1715.20;;;;;;5073656;28;20074;-66
2021/03/26 02:45:12;;;;;;;54.90;32.65;;;128.70;1689.60;;;;;;5073849;28;20029;-62
2021/03/26 02:47:59;;;;;;;55.53;33.80;;;128.60;1715.20;;;;;;5073505;28;20423;-62
2021/03/26 02:50:37;;;;;;;52.83;31.55;;;128.70;1715.20;;;;;;5073508;28;20024;-65
2021/03/26 02:53:28;;;;;;;56.00;33.90;;;128.60;1715.20;;;;;;5073770;28;20078;-69
2021/03/26 02:56:06;;;;;;;60.00;34.88;;;128.50;1740.80;;;;;;5073337;28;20484;-68
2021/03/26 02:58:37;;;;;;;59.67;35.75;;;128.50;1740.80;;;;;;5083792;28;20063;-69
2021/03/26 03:01:26;;;;;;;58.33;35.33;;;128.30;1766.40;;;;;;5091694;28;20027;-62
2021/03/26 03:04:04;;;;;;;58.95;36.72;;;128.20;1766.40;;;;;;5091660;28;20024;-62
2021/03/26 03:06:40;;;;;;;62.45;36.08;;;128.10;1792.00;;;;;;5091705;28;20047;-69
2021/03/26 03:09:09;;;;;;;65.90;37.83;;;103.30;1792.00;;;;;;5091852;28;20020;-63
2021/03/26 03:11:41;;;;;;;66.47;38.83;;;103.00;1817.60;;;;;;5091361;28;20027;-69
2021/03/26 03:14:12;;;;;;;69.25;38.20;;;102.90;1817.60;;;;;;5093058;28;20354;-70
2021/03/26 03:17:20;;;;;;;74.07;40.10;;;102.90;1817.60;;;;;;5093737;28;20051;-71
2021/03/26 03:19:51;;;;;;;83.30;42.05;;;102.80;1843.20;;;;;;5012084;28;20467;-70
2021/03/26 03:22:32;;;;;;;83.45;45.72;;;102.70;1843.20;;;;;;5025107;28;20124;-66
2021/03/26 03:25:05;;;;;;;79.35;40.33;;;102.70;1868.80;;;;;;5031157;28;20066;-70
2021/03/26 03:27:39;;;;;;;69.72;40.88;;;102.70;1868.80;;;;;;5027608;28;20025;-63
2021/03/26 03:30:21;;;;;;;76.90;44.47;;;102.80;1843.20;;;;;;5011424;28;20030;-68
2021/03/26 03:32:58;;;;;;;86.93;49.00;;;102.90;1843.20;;;;;;5011680;28;20152;-69
2021/03/26 03:35:48;;;;;;;84.90;47.00;;;102.90;1843.20;;;;;;5011250;28;20041;-69
2021/03/26 03:38:29;;;;;;;81.65;45.78;;;103.00;1817.60;;;;;;5011263;28;20417;-69
2021/03/26 03:41:07;;;;;;;89.13;47.47;;;103.10;1817.60;;;;;;5011238;28;20036;-71
2021/03/26 03:43:40;;;;;;;82.00;45.85;;;103.10;1817.60;;;;;;5011280;28;20040;-69
2021/03/26 03:46:09;;;;;;;82.75;47.58;;;103.10;1817.60;;;;;;5011233;28;20032;-69
2021/03/26 03:48:53;;;;;;;83.95;47.53;;;103.10;1792.00;;;;;;4994680;28;20045;-64
2021/03/26 03:51:23;;;;;;;87.60;48.53;;;103.10;1792.00;;;;;;5011492;28;20442;-69
2021/03/26 03:54:00;;;;;;;88.75;49.65;;;103.10;1792.00;;;;;;5011073;28;20026;-68
2021/03/26 03:56:29;;;;;;;81.43;46.10;;;103.10;1792.00;;;;;;5070030;28;20060;-67
2021/03/26 03:59:34;;;;;;;79.00;46.10;;;103.10;1792.00;;;;;;5072780;28;20013;-70
2021/03/26 04:02:04;;;;;;;;;;;103.10;1792.00;;;;;;5064086;28;20045;-69
2021/03/26 04:04:37;;;;;;;82.97;45.88;;;103.10;1792.00;;;;;;5073371;28;19908;-65
2021/03/26 04:07:20;;;;;;;87.88;47.58;;;103.10;1792.00;;;;;;5072902;28;20020;-69
2021/03/26 04:09:55;;;;;;;88.22;48.72;;;103.00;1792.00;;;;;;5073006;28;20017;-69
2021/03/26 04:12:28;;;;;;;82.28;47.53;;;103.00;1817.60;;;;;;5072584;28;20064;-62
2021/03/26 04:15:21;;;;;;;79.63;48.10;;;103.00;1817.60;;;;;;5072576;28;20025;-62
2021/03/26 04:18:19;;;;;;;116.00;55.90;;;103.00;1817.60;;;;;;5072560;28;20029;-66
2021/03/26 04:21:24;;;;;;;101.17;51.93;;;102.90;1792.00;;;;;;5072399;28;20108;-70
2021/03/26 04:24:11;;;;;;;81.68;46.40;;;102.90;1817.60;;;;;;5073402;28;20115;-63
2021/03/26 04:26:45;;;;;;;85.45;47.65;;;103.00;1792.00;;;;;;5076281;28;20021;-69
2021/03/26 04:29:37;;;;;;;87.00;46.15;;;103.00;1817.60;;;;;;5076189;28;20035;-63
2021/03/26 04:32:12;;;;;;;88.15;48.17;;;102.90;1817.60;;;;;;5075523;28;20041;-70
2021/03/26 04:34:40;;;;;;;133.35;64.88;;;102.90;1843.20;;;;;;5075930;28;20118;-69
2021/03/26 04:37:21;;;;;;;134.93;64.82;;;102.90;1817.60;;;;;;5076006;28;20019;-71
2021/03/26 04:40:05;;;;;;;119.55;59.05;;;102.90;1817.60;;;;;;5076003;28;20024;-69
2021/03/26 04:42:48;;;;;;;88.97;49.92;;;102.90;1843.20;;;;;;5082883;28;20041;-70
2021/03/26 04:45:53;;;;;;;75.90;42.40;;;102.90;1843.20;;;;;;5096055;28;20480;-62
2021/03/26 04:48:54;;;;;;;75.90;42.87;;;103.00;1843.20;;;;;;5096517;28;20024;-66
2021/03/26 04:51:31;;;;;;;73.83;42.93;;;103.00;1817.60;;;;;;5081881;28;20043;-69
2021/03/26 04:54:08;;;;;;;74.73;45.67;;;103.10;1817.60;;;;;;5096059;28;20046;-61
2021/03/26 04:56:42;;;;;;;78.20;46.33;;;103.10;1817.60;;;;;;5096279;28;20480;-62
2021/03/26 04:59:10;;;;;;;78.93;47.72;;;103.20;1817.60;;;;;;5096246;28;20094;-68
2021/03/26 05:01:39;;;;;;;74.83;44.00;;;103.20;1817.60;;;;;;5082771;28;20029;-69
2021/03/26 05:04:34;;;;;;;67.45;40.72;;;103.30;1792.00;;;;;;5075572;28;20020;-69
2021/03/26 05:07:05;;;;;;;64.30;38.67;;;128.00;1817.60;;;;;;5075783;28;20528;-66
2021/03/26 05:09:39;;;;;;;78.80;40.93;;;128.00;1817.60;;;;;;5075623;28;20103;-63
2021/03/26 05:12:16;;;;;;;65.15;38.28;;;128.00;1817.60;;;;;;5075752;28;20016;-62
2021/03/26 05:14:47;;;;;;;67.40;38.95;;;128.00;1817.60;;;;;;5075475;28;20028;-61
2021/03/26 05:17:25;;;;;;;70.73;40.83;;;128.10;1817.60;;;;;;5075671;28;20039;-62
2021/03/26 05:20:09;;;;;;;74.50;42.40;;;128.10;1817.60;;;;;;5087665;28;20052;-69
2021/03/26 05:22:57;;;;;;;68.95;40.70;;;128.10;1817.60;;;;;;5095190;28;20135;-68
2021/03/26 05:25:36;;;;;;;71.40;41.55;;;128.20;1792.00;;;;;;5095375;28;20545;-68
2021/03/26 05:28:07;;;;;;;78.70;41.42;;;128.30;1792.00;;;;;;5095675;28;20445;-69
2021/03/26 05:30:39;;;;;;;83.70;41.08;;;128.40;1792.00;;;;;;5095760;28;20020;-70
2021/03/26 05:33:29;;;;;;;89.80;46.08;;;128.50;1792.00;;;;;;5095661;28;20027;-69
2021/03/26 05:36:14;;;;;;;81.75;45.00;;;128.50;1766.40;;;;;;5095340;28;20036;-69
2021/03/26 05:38:46;;;;;;;91.07;49.00;;;128.60;1766.40;;;;;;5095200;28;20484;-62
2021/03/26 05:41:45;;;;;;;84.70;48.53;;;128.70;1766.40;;;;;;5095135;28;20059;-62
2021/03/26 05:44:17;;;;;;;91.35;49.50;;;128.80;1766.40;;;;;;5094964;28;20024;-68
2021/03/26 05:47:13;;;;;;;84.57;47.28;;;128.90;1766.40;;;;;;5094939;28;20020;-68
2021/03/26 05:49:54;;;;;;;86.57;47.85;;;128.90;1766.40;;;;;;5056884;28;20392;-70
2021/03/26 05:52:36;;;;;;;91.93;48.35;;;153.60;1766.40;;;;;;5092799;28;20059;-62
2021/03/26 05:55:14;;;;;;;87.13;48.03;;;153.70;1766.40;;;;;;5074831;28;20033;-62
2021/03/26 05:57:53;;;;;;;86.05;48.53;;;153.80;1766.40;;;;;;5074548;28;20024;-62
2021/03/26 06:00:37;;;;;;;91.18;48.42;;;153.90;1766.40;;;;;;5074502;28;20024;-69
2021/03/26 06:03:38;;;;;;;104.95;53.90;;;153.90;1766.40;;;;;;5074690;28;20082;-69
2021/03/26 06:06:32;;;;;;;150.27;86.93;;;153.90;1766.40;;;;;;5074649;28;20063;-62
2021/03/26 06:09:30;;;;;;;118.57;63.45;;;154.00;1792.00;;;;;;5074574;28;20017;-62
2021/03/26 06:12:25;;;;;;;114.72;57.45;;;154.10;1766.40;;;;;;5069664;28;20032;-66
2021/03/26 06:14:50;;;;;;;;;;;154.30;1766.40;;;;;;5074475;28;20147;-64
2021/03/26 06:17:19;;;;;;;75.20;42.35;;;154.50;1740.80;;;;;;5074916;28;19944;-69
2021/03/26 06:20:08;;;;;;;69.55;38.35;;;179.20;1715.20;;;;;;5074039;28;20032;-62
2021/03/26 06:23:10;;;;;;;69.78;40.72;;;179.30;1715.20;;;;;;5073790;28;20518;-65
2021/03/26 06:25:40;;;;;;;63.00;40.05;;;179.40;1715.20;;;;;;5056123;28;20107;-64
2021/03/26 06:28:31;;;;;;;100.40;55.65;;;179.50;1689.60;;;;;;5073936;28;20020;-63
2021/03/26 06:31:22;;;;;;;61.25;36.92;;;179.70;1664.00;;;;;;5073878;28;20107;-63
2021/03/26 06:34:08;;;;;;;57.75;34.13;;;179.80;1664.00;;;;;;5074427;28;20021;-62
2021/03/26 06:37:09;;;;;;;48.70;31.20;;;179.90;1638.40;;;;;;5073862;28;20036;-69
2021/03/26 06:40:08;;;;;;;57.28;37.63;;;180.00;1612.80;;;;;;5073404;28;20021;-71
2021/03/26 06:42:55;;;;;;;46.60;31.60;;;205.60;1536.00;;;;;;5073955;28;20029;-70
2021/03/26 06:45:33;;;;;;;44.72;28.77;;;307.40;1305.60;;;;;;5073655;28;20561;-69
2021/03/26 06:48:06;;;;;;;39.28;27.02;;;359.10;1100.80;;;;;;5073068;28;20027;-71
2021/03/26 06:51:01;;;;;;;37.08;25.60;;;410.30;972.80;;;;;;5073993;28;20047;-65
2021/03/26 06:53:59;;;;;;;30.02;24.45;;;461.30;819.20;;;;;;5073806;28;20063;-71
2021/03/26 06:56:55;;;;;;;33.88;24.63;;;487.30;742.40;;;;;;5073325;28;20036;-71
2021/03/26 06:59:32;;;;;;;29.52;22.90;;;538.00;691.20;;;;;;5073721;28;20032;-67
2021/03/26 07:02:24;;;;;;;23.38;18.77;;;588.80;716.80;;;;;;5073670;28;20031;-71
2021/03/26 07:05:29;;;;;;;20.52;16.92;;;614.60;588.80;;;;;;5073588;28;20107;-72
2021/03/26 07:08:02;;;;;;;21.05;17.55;;;615.10;563.20;;;;;;5073584;28;20052;-63
2021/03/26 07:10:55;;;;;;;18.27;14.88;;;640.00;537.60;;;;;;5073565;28;20457;-71
2021/03/26 07:13:21;;;;;;;19.42;15.15;;;640.50;512.00;;;;;;5073188;28;20024;-70
2021/03/26 07:16:06;;;;;;;22.33;16.35;;;640.90;486.40;;;;;;5073214;28;20036;-71
2021/03/26 07:18:48;;;;;;;24.38;16.85;;;666.00;512.00;;;;;;5073500;28;20062;-63
2021/03/26 07:21:23;;;;;;;19.73;15.35;;;691.40;512.00;;;;;;5074493;28;20186;-72
2021/03/26 07:24:07;;;;;;;17.73;15.30;;;692.10;486.40;;;;;;5113579;28;20521;-69
2021/03/26 07:26:52;;;;;;;;;;;717.00;435.20;;;;;;5113993;28;20027;-72
2021/03/26 07:29:52;;;;;;;21.42;16.35;;;717.00;460.80;;;;;;5113824;28;19911;-71
2021/03/26 07:32:18;;;;;;;19.63;16.00;;;691.90;435.20;;;;;;5027812;28;20031;-71
2021/03/26 07:35:13;;;;;;;24.60;16.35;;;640.20;512.00;;;;;;5113783;28;20031;-67
2021/03/26 07:37:59;;;;;;;24.67;17.33;;;563.80;640.00;;;;;;5113575;28;20024;-69
2021/03/26 07:41:22;;;;;;;21.58;15.93;;;537.70;716.80;;;;;;5113521;28;20084;-69
2021/03/26 07:44:13;;;;;;;142.52;89.32;;;486.60;716.80;;;;;;5006690;28;20445;-70
2021/03/26 07:46:57;;;;;;;98.45;69.10;;;460.80;819.20;;;;;;5003276;28;20040;-64
2021/03/26 07:49:49;;;;;;;32.90;24.23;;;435.70;793.60;;;;;;5070913;28;20043;-71
2021/03/26 07:52:41;;;;;;;26.95;17.70;;;410.30;870.40;;;;;;5096512;28;20008;-73
2021/03/26 07:55:25;;;;;;;21.88;16.38;;;410.10;896.00;;;;;;5102369;28;20061;-65
2021/03/26 07:58:32;;;;;;;25.40;19.10;;;409.80;896.00;;;;;;5099294;28;20081;-74
2021/03/26 08:01:23;;;;;;;26.85;18.13;;;384.70;896.00;;;;;;5103701;28;20051;-63
2021/03/26 08:03:56;;;;;;;20.35;12.90;;;384.60;896.00;;;;;;5097244;28;20020;-62
2021/03/26 08:06:43;;;;;;;21.83;15.10;;;384.50;921.60;;;;;;5097338;28;20020;-62
2021/03/26 08:09:45;;;;;;;18.70;12.95;;;384.50;896.00;;;;;;5096987;28;20020;-62
2021/03/26 08:12:35;;;;;;;16.83;11.45;;;384.30;921.60;;;;;;5091789;28;20036;-69
2021/03/26 08:15:37;;;;;;;16.95;11.77;;;384.10;921.60;;;;;;5097617;28;20116;-64
2021/03/26 08:18:27;;;;;;;20.67;14.85;;;384.10;947.20;;;;;;5102737;28;20076;-64
2021/03/26 08:21:12;;;;;;;18.83;12.65;;;384.00;921.60;;;;;;5101951;28;20063;-71
2021/03/26 08:24:07;;;;;;;17.95;12.23;;;359.20;921.60;;;;;;5108171;28;20043;-70
2021/03/26 08:27:10;;;;;;;17.52;11.10;;;359.10;921.60;;;;;;5106293;28;20035;-68
2021/03/26 08:29:40;;;;;;;16.92;11.77;;;358.90;921.60;;;;;;5085675;28;20388;-73
2021/03/26 08:32:13;;;;;;;20.98;12.90;;;358.90;947.20;;;;;;5096443;28;20047;-70
2021/03/26 08:34:47;;;;;;;21.20;13.45;;;359.00;972.80;;;;;;5103070;28;20032;-63
2021/03/26 08:37:51;;;;;;;18.52;12.40;;;359.10;947.20;;;;;;5098216;28;20032;-69
2021/03/26 08:40:22;;;;;;;19.30;12.70;;;359.10;972.80;;;;;;5102974;28;20024;-70
2021/03/26 08:42:50;;;;;;;18.67;11.70;;;359.30;972.80;;;;;;5095558;28;20028;-71
2021/03/26 08:45:23;;;;;;;17.08;12.05;;;359.30;921.60;;;;;;5108056;28;20473;-71
2021/03/26 08:47:58;;;;;;;20.23;12.82;;;359.10;896.00;;;;;;5100554;28;20018;-69
2021/03/26 08:50:38;;;;;;;17.38;12.27;;;359.00;921.60;;;;;;5094696;28;20028;-66
2021/03/26 08:53:29;;;;;;;21.90;12.27;;;359.00;921.60;;;;;;5102146;28;20069;-67
2021/03/26 08:56:20;;;;;;;20.95;13.35;;;359.00;947.20;;;;;;5102933;28;20034;-64
2021/03/26 08:59:13;;;;;;;21.35;13.80;;;359.00;947.20;;;;;;5094081;28;20009;-63
2021/03/26 09:02:04;;;;;;;19.10;13.70;;;359.00;947.20;;;;;;5077377;28;20028;-69
2021/03/26 09:04:35;;;;;;;16.60;12.77;;;359.10;947.20;;;;;;5101584;28;20034;-64
2021/03/26 09:07:29;;;;;;;26.95;13.85;;;359.10;947.20;;;;;;5101738;28;20019;-68
2021/03/26 09:10:25;;;;;;;23.70;14.48;;;359.20;972.80;;;;;;5108405;28;20024;-63
2021/03/26 09:12:59;;;;;;;18.60;13.38;;;359.30;947.20;;;;;;5116280;28;20032;-68
2021/03/26 09:15:31;;;;;;;17.75;13.15;;;359.30;947.20;;;;;;5092106;28;20479;-68
2021/03/26 09:18:00;;;;;;;18.08;12.48;;;359.10;972.80;;;;;;5104369;28;20038;-67
2021/03/26 09:20:32;;;;;;;22.42;13.75;;;359.20;921.60;;;;;;5101588;28;20020;-68
2021/03/26 09:23:16;;;;;;;18.90;13.63;;;359.20;947.20;;;;;;5105050;28;20044;-63
2021/03/26 09:26:00;;;;;;;19.63;13.25;;;359.10;947.20;;;;;;5095625;28;20024;-63
2021/03/26 09:28:51;;;;;;;19.95;13.05;;;359.10;947.20;;;;;;5095626;28;20095;-69
2021/03/26 09:31:48;;;;;;;21.70;14.10;;;359.20;896.00;;;;;;5095529;28;20473;-68
2021/03/26 09:34:32;;;;;;;21.55;15.10;;;359.30;972.80;;;;;;5087753;28;20051;-68
2021/03/26 09:37:24;;;;;;;21.55;14.60;;;359.30;972.80;;;;;;5094242;28;20032;-68
2021/03/26 09:39:56;;;;;;;23.75;16.00;;;384.00;972.80;;;;;;5094797;28;20380;-68
2021/03/26 09:42:51;;;;;;;22.87;15.80;;;384.10;972.80;;;;;;5094406;28;20100;-67
2021/03/26 09:45:26;;;;;;;21.73;16.25;;;384.10;972.80;;;;;;5091540;28;20268;-67
2021/03/26 09:48:01;;;;;;;26.35;18.38;;;384.20;972.80;;;;;;5081042;28;20484;-68
2021/03/26 09:50:59;;;;;;;24.63;16.63;;;384.30;972.80;;;;;;5102898;28;20077;-68
2021/03/26 09:53:26;;;;;;;22.83;15.93;;;384.10;947.20;;;;;;5074017;28;20024;-65
2021/03/26 09:56:04;;;;;;;25.38;17.35;;;384.20;947.20;;;;;;5074822;28;20479;-67
2021/03/26 09:58:47;;;;;;;27.67;18.77;;;384.40;972.80;;;;;;5097103;28;20072;-66
2021/03/26 10:01:27;;;;;;;23.17;17.15;;;384.40;998.40;;;;;;5094272;28;20020;-68
2021/03/26 10:04:11;;;;;;;23.98;17.40;;;384.50;972.80;;;;;;5094249;28;20388;-65
2021/03/26 10:06:54;;;;;;;26.70;17.85;;;384.50;998.40;;;;;;5094132;28;20024;-68
2021/03/26 10:09:31;;;;;;;26.17;18.60;;;384.60;998.40;;;;;;5094371;28;20024;-68
2021/03/26 10:12:15;;;;;;;26.73;17.83;;;384.70;998.40;;;;;;5094713;28;20249;-68
2021/03/26 10:14:45;;;;;;;;;;;384.70;998.40;;;;;;5097782;28;20484;-66
2021/03/26 10:17:11;;;;;;;24.27;16.90;;;384.80;972.80;;;;;;5093906;28;19908;-63
2021/03/26 10:19:50;;;;;;;25.15;18.23;;;384.90;972.80;;;;;;5090882;28;20162;-69
2021/03/26 10:22:24;;;;;;;25.45;17.83;;;384.90;972.80;;;;;;5074527;28;20045;-68
2021/03/26 10:24:58;;;;;;;26.80;18.35;;;384.90;998.40;;;;;;5073748;28;20096;-68
2021/03/26 10:27:30;;;;;;;;;;;384.90;947.20;;;;;;5088206;28;20024;-69
2021/03/26 10:29:58;;;;;;;26.65;17.90;;;384.80;998.40;;;;;;5091219;28;19918;-65
2021/03/26 10:32:28;;;;;;;26.05;17.00;;;384.70;998.40;;;;;;5074109;28;20392;-65
2021/03/26 10:34:58;;;;;;;26.60;18.85;;;384.70;947.20;;;;;;5094945;28;20051;-67
2021/03/26 10:37:44;;;;;;;26.60;17.65;;;384.80;947.20;;;;;;5073939;28;20063;-69
2021/03/26 10:40:35;;;;;;;23.85;17.13;;;384.80;947.20;;;;;;5091488;28;20016;-67
2021/03/26 10:43:12;;;;;;;23.77;18.05;;;384.90;896.00;;;;;;5090163;28;20522;-65
2021/03/26 10:46:01;;;;;;;23.80;17.55;;;384.70;896.00;;;;;;5103099;28;20023;-69
2021/03/26 10:48:41;;;;;;;23.92;17.40;;;384.80;896.00;;;;;;5082235;28;20067;-70
2021/03/26 10:51:19;;;;;;;29.73;17.00;;;384.90;947.20;;;;;;5091110;28;20025;-68
2021/03/26 10:53:58;;;;;;;26.50;17.73;;;409.60;1049.60;;;;;;5090895;28;20062;-69
2021/03/26 10:56:27;;;;;;;24.60;17.45;;;409.60;972.80;;;;;;5086329;28;20512;-66
2021/03/26 10:59:04;;;;;;;24.90;18.05;;;409.70;972.80;;;;;;5090594;28;20034;-67
2021/03/26 11:01:38;;;;;;;28.27;21.40;;;409.80;947.20;;;;;;5092142;28;20395;-68
2021/03/26 11:04:22;;;;;;;380.58;313.00;;;409.80;947.20;;;;;;5090737;28;20073;-69
2021/03/26 11:07:09;;;;;;;40.97;26.05;;;409.80;972.80;;;;;;5090637;28;20484;-69
2021/03/26 11:09:48;;;;;;;20.98;16.55;;;409.90;921.60;;;;;;5091914;28;20032;-71
2021/03/26 11:12:35;;;;;;;23.58;17.15;;;410.00;921.60;;;;;;5088320;28;20403;-66
2021/03/26 11:15:13;;;;;;;36.70;21.83;;;410.00;896.00;;;;;;5089295;28;20503;-68
2021/03/26 11:17:50;;;;;;;31.83;18.50;;;410.10;921.60;;;;;;5084514;28;20039;-67
2021/03/26 11:20:22;;;;;;;29.40;15.88;;;410.20;972.80;;;;;;5095446;28;20032;-68
2021/03/26 11:23:11;;;;;;;28.27;16.27;;;410.10;972.80;;;;;;5091336;28;20573;-63
2021/03/26 11:25:41;;;;;;;38.65;23.00;;;410.20;921.60;;;;;;5076991;28;20032;-66
2021/03/26 11:28:24;;;;;;;33.72;20.65;;;410.30;896.00;;;;;;5082304;28;20441;-67
2021/03/26 11:30:57;;;;;;;22.23;14.77;;;410.40;947.20;;;;;;5083844;28;20027;-69
2021/03/26 11:33:36;;;;;;;23.13;15.57;;;410.40;921.60;;;;;;5081054;28;20031;-68
2021/03/26 11:36:04;;;;;;;20.25;15.70;;;410.50;921.60;;;;;;5072598;28;20477;-64
2021/03/26 11:38:33;;;;;;;21.85;15.80;;;410.40;921.60;;;;;;5079820;28;20026;-63
2021/03/26 11:41:08;;;;;;;23.00;15.98;;;410.50;870.40;;;;;;5088898;28;20051;-64
2021/03/26 11:43:46;;;;;;;20.42;15.30;;;435.20;947.20;;;;;;5093527;28;20031;-68
2021/03/26 11:46:22;;;;;;;23.20;16.05;;;435.20;921.60;;;;;;5094262;28;20058;-68
2021/03/26 11:49:17;;;;;;;19.50;15.10;;;435.40;972.80;;;;;;5084607;28;20064;-68
2021/03/26 11:51:49;;;;;;;22.35;15.35;;;435.20;896.00;;;;;;5086377;28;20133;-67
2021/03/26 11:54:18;;;;;;;26.00;15.60;;;410.50;896.00;;;;;;5090077;28;20040;-68
2021/03/26 11:57:15;;;;;;;20.80;15.10;;;410.50;947.20;;;;;;5085543;28;20060;-67
2021/03/26 12:00:04;;;;;;;22.73;14.70;;;435.20;896.00;;;;;;5084367;28;20054;-63
2021/03/26 12:02:53;;;;;;;19.02;13.43;;;435.20;896.00;;;;;;5052494;28;20036;-62
2021/03/26 12:05:24;;;;;;;21.23;14.20;;;435.20;870.40;;;;;;5095192;28;20100;-67
2021/03/26 12:08:01;;;;;;;21.35;13.73;;;435.30;896.00;;;;;;5094660;28;20480;-68
2021/03/26 12:10:41;;;;;;;22.23;14.25;;;435.30;921.60;;;;;;5090961;28;20135;-68
2021/03/26 12:13:17;;;;;;;20.98;14.20;;;435.30;870.40;;;;;;5090704;28;20030;-62
2021/03/26 12:15:58;;;;;;;25.77;14.95;;;435.40;896.00;;;;;;5090777;28;20132;-66
2021/03/26 12:18:42;;;;;;;23.08;15.20;;;435.40;921.60;;;;;;5090677;28;20027;-70
2021/03/26 12:21:22;;;;;;;28.83;17.42;;;435.50;896.00;;;;;;5086478;28;20124;-66
2021/03/26 12:24:31;;;;;;;22.23;16.08;;;435.60;870.40;;;;;;5077509;28;20016;-69
2021/03/26 12:27:23;;;;;;;19.98;13.75;;;435.60;870.40;;;;;;5076078;28;20028;-69
2021/03/26 12:30:01;;;;;;;21.10;14.23;;;435.50;844.80;;;;;;5076735;28;20024;-68
2021/03/26 12:32:52;;;;;;;22.55;14.45;;;435.50;819.20;;;;;;5086713;28;20033;-65
2021/03/26 12:35:49;;;;;;;18.98;14.45;;;435.60;844.80;;;;;;5057486;28;20047;-68
2021/03/26 12:38:31;;;;;;;28.10;16.63;;;435.60;870.40;;;;;;5057389;28;20036;-68
2021/03/26 12:41:30;;;;;;;27.43;17.33;;;435.70;870.40;;;;;;5103189;28;20472;-67
2021/03/26 12:44:07;;;;;;;24.15;15.00;;;435.70;870.40;;;;;;5081979;28;20015;-63
2021/03/26 12:47:12;;;;;;;20.05;15.15;;;435.90;844.80;;;;;;5095156;28;20016;-63
2021/03/26 12:50:01;;;;;;;26.48;14.98;;;435.60;844.80;;;;;;5102191;28;20024;-67
2021/03/26 12:52:43;;;;;;;20.45;14.95;;;435.70;819.20;;;;;;5075989;28;20109;-68
2021/03/26 12:55:20;;;;;;;34.30;20.90;;;435.70;819.20;;;;;;5089289;28;20070;-67
2021/03/26 12:58:02;;;;;;;34.22;16.95;;;435.70;844.80;;;;;;5093480;28;20039;-65
2021/03/26 13:01:08;;;;;;;29.35;17.73;;;435.70;870.40;;;;;;5096131;28;20054;-65
2021/03/26 13:03:38;;;;;;;35.72;18.73;;;435.70;870.40;;;;;;5102812;28;20349;-67